sensor_id;sensor_type;location;lat;lon;timestamp;P1;durP1;ratioP1;P2;durP2;ratioP2
73869;SDS011;64924;42.140;24.762;2023-11-21T00:02:19;5.00;;;1.90;;
73869;SDS011;64924;42.140;24.762;2023-11-21T00:04:45;7.40;;;2.13;;
73869;SDS011;64924;42.140;24.762;2023-11-21T00:07:12;7.68;;;2.45;;
73869;SDS011;64924;42.140;24.762;2023-11-21T00:09:37;5.85;;;2.47;;
73869;SDS011;64924;42.140;24.762;2023-11-21T00:12:03;3.05;;;2.15;;
73869;SDS011;64924;42.140;24.762;2023-11-21T00:14:29;5.00;;;2.17;;
73869;SDS011;64924;42.140;24.762;2023-11-21T00:16:55;5.90;;;2.10;;
73869;SDS011;64924;42.140;24.762;2023-11-21T00:19:20;4.50;;;2.13;;
73869;SDS011;64924;42.140;24.762;2023-11-21T00:21:46;3.72;;;1.83;;
73869;SDS011;64924;42.140;24.762;2023-11-21T00:24:11;4.38;;;2.45;;
73869;SDS011;64924;42.140;24.762;2023-11-21T00:26:41;6.82;;;2.17;;
73869;SDS011;64924;42.140;24.762;2023-11-21T00:29:06;13.07;;;3.15;;
73869;SDS011;64924;42.140;24.762;2023-11-21T00:31:33;5.38;;;3.10;;
73869;SDS011;64924;42.140;24.762;2023-11-21T00:33:59;12.13;;;2.92;;
73869;SDS011;64924;42.140;24.762;2023-11-21T00:36:24;7.95;;;2.60;;
73869;SDS011;64924;42.140;24.762;2023-11-21T00:38:51;6.22;;;2.88;;
73869;SDS011;64924;42.140;24.762;2023-11-21T00:41:16;9.98;;;3.05;;
73869;SDS011;64924;42.140;24.762;2023-11-21T00:43:41;10.27;;;3.03;;
73869;SDS011;64924;42.140;24.762;2023-11-21T00:46:07;9.70;;;3.40;;
73869;SDS011;64924;42.140;24.762;2023-11-21T00:48:33;6.57;;;3.58;;
73869;SDS011;64924;42.140;24.762;2023-11-21T00:50:58;8.68;;;3.75;;
73869;SDS011;64924;42.140;24.762;2023-11-21T00:53:24;9.23;;;4.03;;
73869;SDS011;64924;42.140;24.762;2023-11-21T00:55:49;11.25;;;4.10;;
73869;SDS011;64924;42.140;24.762;2023-11-21T00:58:17;13.18;;;4.95;;
73869;SDS011;64924;42.140;24.762;2023-11-21T01:00:42;17.00;;;5.20;;
73869;SDS011;64924;42.140;24.762;2023-11-21T01:03:08;11.98;;;5.22;;
73869;SDS011;64924;42.140;24.762;2023-11-21T01:05:34;13.07;;;4.75;;
73869;SDS011;64924;42.140;24.762;2023-11-21T01:07:59;9.57;;;4.95;;
73869;SDS011;64924;42.140;24.762;2023-11-21T01:10:25;12.13;;;4.80;;
73869;SDS011;64924;42.140;24.762;2023-11-21T01:12:50;11.93;;;4.88;;
73869;SDS011;64924;42.140;24.762;2023-11-21T01:15:16;13.15;;;4.65;;
73869;SDS011;64924;42.140;24.762;2023-11-21T01:17:41;13.48;;;4.70;;
73869;SDS011;64924;42.140;24.762;2023-11-21T01:20:08;9.95;;;4.85;;
73869;SDS011;64924;42.140;24.762;2023-11-21T01:22:37;10.93;;;4.93;;
73869;SDS011;64924;42.140;24.762;2023-11-21T01:25:04;10.25;;;4.00;;
73869;SDS011;64924;42.140;24.762;2023-11-21T01:27:32;8.23;;;3.85;;
73869;SDS011;64924;42.140;24.762;2023-11-21T01:29:59;7.75;;;3.65;;
73869;SDS011;64924;42.140;24.762;2023-11-21T01:32:25;8.60;;;4.32;;
73869;SDS011;64924;42.140;24.762;2023-11-21T01:34:50;12.52;;;4.57;;
73869;SDS011;64924;42.140;24.762;2023-11-21T01:37:16;9.07;;;3.88;;
73869;SDS011;64924;42.140;24.762;2023-11-21T01:39:42;8.65;;;3.85;;
73869;SDS011;64924;42.140;24.762;2023-11-21T01:42:09;9.82;;;4.38;;
73869;SDS011;64924;42.140;24.762;2023-11-21T01:44:34;8.20;;;4.63;;
73869;SDS011;64924;42.140;24.762;2023-11-21T01:47:00;12.98;;;5.03;;
73869;SDS011;64924;42.140;24.762;2023-11-21T01:49:30;12.63;;;5.97;;
73869;SDS011;64924;42.140;24.762;2023-11-21T01:51:58;10.98;;;5.50;;
73869;SDS011;64924;42.140;24.762;2023-11-21T01:54:24;16.70;;;6.18;;
73869;SDS011;64924;42.140;24.762;2023-11-21T01:56:50;13.68;;;5.70;;
73869;SDS011;64924;42.140;24.762;2023-11-21T01:59:18;10.07;;;5.50;;
73869;SDS011;64924;42.140;24.762;2023-11-21T02:01:45;12.38;;;5.03;;
73869;SDS011;64924;42.140;24.762;2023-11-21T02:04:12;9.27;;;5.80;;
73869;SDS011;64924;42.140;24.762;2023-11-21T02:06:37;12.35;;;6.07;;
73869;SDS011;64924;42.140;24.762;2023-11-21T02:09:04;8.25;;;5.45;;
73869;SDS011;64924;42.140;24.762;2023-11-21T02:11:30;11.77;;;5.85;;
73869;SDS011;64924;42.140;24.762;2023-11-21T02:13:55;12.90;;;5.65;;
73869;SDS011;64924;42.140;24.762;2023-11-21T02:16:24;9.07;;;5.50;;
73869;SDS011;64924;42.140;24.762;2023-11-21T02:18:50;9.43;;;5.15;;
73869;SDS011;64924;42.140;24.762;2023-11-21T02:21:17;10.98;;;6.10;;
73869;SDS011;64924;42.140;24.762;2023-11-21T02:23:44;10.45;;;6.30;;
73869;SDS011;64924;42.140;24.762;2023-11-21T02:26:11;11.38;;;6.60;;
73869;SDS011;64924;42.140;24.762;2023-11-21T02:28:37;15.88;;;7.72;;
73869;SDS011;64924;42.140;24.762;2023-11-21T02:31:04;12.55;;;7.32;;
73869;SDS011;64924;42.140;24.762;2023-11-21T02:33:30;12.30;;;6.45;;
73869;SDS011;64924;42.140;24.762;2023-11-21T02:35:59;14.55;;;7.28;;
73869;SDS011;64924;42.140;24.762;2023-11-21T02:38:25;16.63;;;7.10;;
73869;SDS011;64924;42.140;24.762;2023-11-21T02:40:51;11.82;;;6.18;;
73869;SDS011;64924;42.140;24.762;2023-11-21T02:43:16;14.02;;;7.82;;
73869;SDS011;64924;42.140;24.762;2023-11-21T02:45:42;13.38;;;7.07;;
73869;SDS011;64924;42.140;24.762;2023-11-21T02:48:07;11.77;;;5.78;;
73869;SDS011;64924;42.140;24.762;2023-11-21T02:50:33;11.88;;;6.63;;
73869;SDS011;64924;42.140;24.762;2023-11-21T02:53:00;12.93;;;6.10;;
73869;SDS011;64924;42.140;24.762;2023-11-21T02:55:26;14.88;;;7.30;;
73869;SDS011;64924;42.140;24.762;2023-11-21T02:57:52;13.80;;;7.13;;
73869;SDS011;64924;42.140;24.762;2023-11-21T03:00:18;14.18;;;6.85;;
73869;SDS011;64924;42.140;24.762;2023-11-21T03:02:43;17.02;;;7.65;;
73869;SDS011;64924;42.140;24.762;2023-11-21T03:05:12;13.38;;;6.90;;
73869;SDS011;64924;42.140;24.762;2023-11-21T03:07:39;14.60;;;6.75;;
73869;SDS011;64924;42.140;24.762;2023-11-21T03:10:05;14.88;;;7.38;;
73869;SDS011;64924;42.140;24.762;2023-11-21T03:12:34;11.98;;;6.30;;
73869;SDS011;64924;42.140;24.762;2023-11-21T03:14:59;11.70;;;6.45;;
73869;SDS011;64924;42.140;24.762;2023-11-21T03:17:26;19.80;;;8.02;;
73869;SDS011;64924;42.140;24.762;2023-11-21T03:19:52;13.52;;;7.03;;
73869;SDS011;64924;42.140;24.762;2023-11-21T03:22:18;17.52;;;7.68;;
73869;SDS011;64924;42.140;24.762;2023-11-21T03:24:44;18.85;;;7.88;;
73869;SDS011;64924;42.140;24.762;2023-11-21T03:27:09;16.20;;;7.43;;
73869;SDS011;64924;42.140;24.762;2023-11-21T03:29:35;16.30;;;8.90;;
73869;SDS011;64924;42.140;24.762;2023-11-21T03:32:00;16.88;;;8.07;;
73869;SDS011;64924;42.140;24.762;2023-11-21T03:34:27;13.75;;;7.85;;
73869;SDS011;64924;42.140;24.762;2023-11-21T03:36:53;14.65;;;7.50;;
73869;SDS011;64924;42.140;24.762;2023-11-21T03:39:21;14.38;;;6.95;;
73869;SDS011;64924;42.140;24.762;2023-11-21T03:41:47;15.17;;;6.60;;
73869;SDS011;64924;42.140;24.762;2023-11-21T03:44:13;13.88;;;6.97;;
73869;SDS011;64924;42.140;24.762;2023-11-21T03:46:39;13.93;;;6.60;;
73869;SDS011;64924;42.140;24.762;2023-11-21T03:49:05;15.27;;;7.45;;
73869;SDS011;64924;42.140;24.762;2023-11-21T03:51:30;15.23;;;7.80;;
73869;SDS011;64924;42.140;24.762;2023-11-21T03:53:56;17.02;;;8.43;;
73869;SDS011;64924;42.140;24.762;2023-11-21T03:56:21;14.57;;;7.25;;
73869;SDS011;64924;42.140;24.762;2023-11-21T03:58:47;15.88;;;7.63;;
73869;SDS011;64924;42.140;24.762;2023-11-21T04:01:23;11.10;;;6.97;;
73869;SDS011;64924;42.140;24.762;2023-11-21T04:03:49;15.85;;;7.68;;
73869;SDS011;64924;42.140;24.762;2023-11-21T04:06:16;13.05;;;7.10;;
73869;SDS011;64924;42.140;24.762;2023-11-21T04:08:42;20.02;;;6.95;;
73869;SDS011;64924;42.140;24.762;2023-11-21T04:11:09;14.82;;;7.28;;
73869;SDS011;64924;42.140;24.762;2023-11-21T04:13:37;18.75;;;7.78;;
73869;SDS011;64924;42.140;24.762;2023-11-21T04:16:04;19.95;;;7.95;;
73869;SDS011;64924;42.140;24.762;2023-11-21T04:18:30;20.88;;;8.48;;
73869;SDS011;64924;42.140;24.762;2023-11-21T04:20:56;17.98;;;8.63;;
73869;SDS011;64924;42.140;24.762;2023-11-21T04:23:22;16.85;;;7.88;;
73869;SDS011;64924;42.140;24.762;2023-11-21T04:25:47;16.48;;;8.02;;
73869;SDS011;64924;42.140;24.762;2023-11-21T04:28:13;17.42;;;8.05;;
73869;SDS011;64924;42.140;24.762;2023-11-21T04:30:38;12.65;;;8.00;;
73869;SDS011;64924;42.140;24.762;2023-11-21T04:33:04;20.92;;;8.00;;
73869;SDS011;64924;42.140;24.762;2023-11-21T04:35:30;17.02;;;8.63;;
73869;SDS011;64924;42.140;24.762;2023-11-21T04:37:55;19.75;;;8.95;;
73869;SDS011;64924;42.140;24.762;2023-11-21T04:40:22;19.73;;;7.32;;
73869;SDS011;64924;42.140;24.762;2023-11-21T04:42:47;19.83;;;7.50;;
73869;SDS011;64924;42.140;24.762;2023-11-21T04:45:13;22.85;;;9.07;;
73869;SDS011;64924;42.140;24.762;2023-11-21T04:47:38;20.20;;;7.75;;
73869;SDS011;64924;42.140;24.762;2023-11-21T04:50:04;23.88;;;8.10;;
73869;SDS011;64924;42.140;24.762;2023-11-21T04:52:31;20.33;;;8.43;;
73869;SDS011;64924;42.140;24.762;2023-11-21T04:54:57;20.17;;;9.38;;
73869;SDS011;64924;42.140;24.762;2023-11-21T04:57:23;28.88;;;9.90;;
73869;SDS011;64924;42.140;24.762;2023-11-21T04:59:49;21.95;;;9.48;;
73869;SDS011;64924;42.140;24.762;2023-11-21T05:02:15;17.63;;;8.85;;
73869;SDS011;64924;42.140;24.762;2023-11-21T05:04:41;18.90;;;8.82;;
73869;SDS011;64924;42.140;24.762;2023-11-21T05:07:07;22.38;;;9.57;;
73869;SDS011;64924;42.140;24.762;2023-11-21T05:09:33;24.30;;;11.70;;
73869;SDS011;64924;42.140;24.762;2023-11-21T05:12:00;22.77;;;11.10;;
73869;SDS011;64924;42.140;24.762;2023-11-21T05:14:27;27.88;;;12.30;;
73869;SDS011;64924;42.140;24.762;2023-11-21T05:16:52;26.10;;;12.07;;
73869;SDS011;64924;42.140;24.762;2023-11-21T05:19:17;24.25;;;11.57;;
73869;SDS011;64924;42.140;24.762;2023-11-21T05:21:43;27.85;;;11.48;;
73869;SDS011;64924;42.140;24.762;2023-11-21T05:24:10;27.70;;;13.52;;
73869;SDS011;64924;42.140;24.762;2023-11-21T05:26:35;31.20;;;12.95;;
73869;SDS011;64924;42.140;24.762;2023-11-21T05:29:00;22.52;;;12.15;;
73869;SDS011;64924;42.140;24.762;2023-11-21T05:31:26;21.52;;;11.45;;
73869;SDS011;64924;42.140;24.762;2023-11-21T05:33:52;24.35;;;10.77;;
73869;SDS011;64924;42.140;24.762;2023-11-21T05:36:18;24.50;;;11.13;;
73869;SDS011;64924;42.140;24.762;2023-11-21T05:38:43;25.33;;;11.60;;
73869;SDS011;64924;42.140;24.762;2023-11-21T05:41:09;28.08;;;11.93;;
73869;SDS011;64924;42.140;24.762;2023-11-21T05:43:38;21.65;;;11.35;;
73869;SDS011;64924;42.140;24.762;2023-11-21T05:46:04;22.95;;;12.07;;
73869;SDS011;64924;42.140;24.762;2023-11-21T05:48:29;27.80;;;12.25;;
73869;SDS011;64924;42.140;24.762;2023-11-21T05:50:55;19.60;;;10.80;;
73869;SDS011;64924;42.140;24.762;2023-11-21T05:53:20;25.85;;;12.15;;
73869;SDS011;64924;42.140;24.762;2023-11-21T05:55:46;28.00;;;12.50;;
73869;SDS011;64924;42.140;24.762;2023-11-21T05:58:13;25.48;;;12.15;;
73869;SDS011;64924;42.140;24.762;2023-11-21T06:00:38;29.40;;;12.75;;
73869;SDS011;64924;42.140;24.762;2023-11-21T06:03:04;31.42;;;14.38;;
73869;SDS011;64924;42.140;24.762;2023-11-21T06:05:31;29.63;;;13.65;;
73869;SDS011;64924;42.140;24.762;2023-11-21T06:07:58;23.67;;;13.65;;
73869;SDS011;64924;42.140;24.762;2023-11-21T06:10:24;31.40;;;13.50;;
73869;SDS011;64924;42.140;24.762;2023-11-21T06:12:49;31.30;;;13.13;;
73869;SDS011;64924;42.140;24.762;2023-11-21T06:15:15;26.65;;;12.45;;
73869;SDS011;64924;42.140;24.762;2023-11-21T06:17:44;27.95;;;12.25;;
73869;SDS011;64924;42.140;24.762;2023-11-21T06:22:40;33.45;;;11.05;;
73869;SDS011;64924;42.140;24.762;2023-11-21T06:25:07;21.70;;;10.93;;
73869;SDS011;64924;42.140;24.762;2023-11-21T06:27:45;26.55;;;10.95;;
73869;SDS011;64924;42.140;24.762;2023-11-21T06:30:12;27.67;;;11.55;;
73869;SDS011;64924;42.140;24.762;2023-11-21T06:32:38;25.55;;;12.32;;
73869;SDS011;64924;42.140;24.762;2023-11-21T06:35:05;22.45;;;13.05;;
73869;SDS011;64924;42.140;24.762;2023-11-21T06:37:31;30.42;;;13.20;;
73869;SDS011;64924;42.140;24.762;2023-11-21T06:39:57;33.13;;;12.85;;
73869;SDS011;64924;42.140;24.762;2023-11-21T06:42:24;28.45;;;14.00;;
73869;SDS011;64924;42.140;24.762;2023-11-21T06:44:50;26.10;;;13.90;;
73869;SDS011;64924;42.140;24.762;2023-11-21T06:47:22;25.48;;;14.38;;
73869;SDS011;64924;42.140;24.762;2023-11-21T06:49:50;25.33;;;15.50;;
73869;SDS011;64924;42.140;24.762;2023-11-21T06:52:16;28.23;;;15.40;;
73869;SDS011;64924;42.140;24.762;2023-11-21T06:54:42;30.55;;;14.75;;
73869;SDS011;64924;42.140;24.762;2023-11-21T06:57:07;29.13;;;15.82;;
73869;SDS011;64924;42.140;24.762;2023-11-21T06:59:33;28.25;;;14.63;;
73869;SDS011;64924;42.140;24.762;2023-11-21T07:01:59;31.10;;;13.90;;
73869;SDS011;64924;42.140;24.762;2023-11-21T07:04:24;27.45;;;13.70;;
73869;SDS011;64924;42.140;24.762;2023-11-21T07:06:53;30.20;;;13.18;;
73869;SDS011;64924;42.140;24.762;2023-11-21T07:09:19;30.13;;;13.70;;
73869;SDS011;64924;42.140;24.762;2023-11-21T07:11:47;25.42;;;12.75;;
73869;SDS011;64924;42.140;24.762;2023-11-21T07:14:13;25.00;;;12.75;;
73869;SDS011;64924;42.140;24.762;2023-11-21T07:16:39;27.33;;;13.25;;
73869;SDS011;64924;42.140;24.762;2023-11-21T07:19:05;26.98;;;12.38;;
73869;SDS011;64924;42.140;24.762;2023-11-21T07:21:32;29.45;;;13.63;;
73869;SDS011;64924;42.140;24.762;2023-11-21T07:23:59;28.23;;;14.23;;
73869;SDS011;64924;42.140;24.762;2023-11-21T07:28:54;27.10;;;14.35;;
73869;SDS011;64924;42.140;24.762;2023-11-21T07:31:21;35.22;;;14.73;;
73869;SDS011;64924;42.140;24.762;2023-11-21T07:33:47;27.02;;;14.80;;
73869;SDS011;64924;42.140;24.762;2023-11-21T07:36:15;46.80;;;16.60;;
73869;SDS011;64924;42.140;24.762;2023-11-21T07:38:43;35.80;;;16.02;;
73869;SDS011;64924;42.140;24.762;2023-11-21T07:41:10;28.23;;;14.90;;
73869;SDS011;64924;42.140;24.762;2023-11-21T07:43:36;27.55;;;14.82;;
73869;SDS011;64924;42.140;24.762;2023-11-21T07:46:04;23.85;;;13.73;;
73869;SDS011;64924;42.140;24.762;2023-11-21T07:48:30;22.75;;;10.82;;
73869;SDS011;64924;42.140;24.762;2023-11-21T07:50:56;17.83;;;9.13;;
73869;SDS011;64924;42.140;24.762;2023-11-21T07:53:23;15.98;;;7.63;;
73869;SDS011;64924;42.140;24.762;2023-11-21T07:55:50;21.50;;;8.63;;
73869;SDS011;64924;42.140;24.762;2023-11-21T07:58:17;15.15;;;9.30;;
73869;SDS011;64924;42.140;24.762;2023-11-21T08:00:43;20.58;;;10.15;;
73869;SDS011;64924;42.140;24.762;2023-11-21T08:03:09;16.73;;;9.10;;
73869;SDS011;64924;42.140;24.762;2023-11-21T08:05:34;17.92;;;9.30;;
73869;SDS011;64924;42.140;24.762;2023-11-21T08:07:59;14.73;;;8.25;;
73869;SDS011;64924;42.140;24.762;2023-11-21T08:10:25;21.65;;;9.57;;
73869;SDS011;64924;42.140;24.762;2023-11-21T08:12:51;16.63;;;7.78;;
73869;SDS011;64924;42.140;24.762;2023-11-21T08:15:17;18.02;;;8.02;;
73869;SDS011;64924;42.140;24.762;2023-11-21T08:17:43;16.00;;;8.25;;
73869;SDS011;64924;42.140;24.762;2023-11-21T08:20:08;15.57;;;9.30;;
73869;SDS011;64924;42.140;24.762;2023-11-21T08:22:36;25.00;;;12.60;;
73869;SDS011;64924;42.140;24.762;2023-11-21T08:25:01;28.13;;;10.45;;
73869;SDS011;64924;42.140;24.762;2023-11-21T08:27:29;14.70;;;8.38;;
73869;SDS011;64924;42.140;24.762;2023-11-21T08:29:54;17.15;;;10.73;;
73869;SDS011;64924;42.140;24.762;2023-11-21T08:32:21;17.95;;;10.98;;
73869;SDS011;64924;42.140;24.762;2023-11-21T08:34:47;19.98;;;10.98;;
73869;SDS011;64924;42.140;24.762;2023-11-21T08:37:15;14.20;;;8.07;;
73869;SDS011;64924;42.140;24.762;2023-11-21T08:39:43;17.30;;;7.45;;
73869;SDS011;64924;42.140;24.762;2023-11-21T08:42:09;12.88;;;8.05;;
73869;SDS011;64924;42.140;24.762;2023-11-21T08:44:35;15.77;;;7.40;;
73869;SDS011;64924;42.140;24.762;2023-11-21T08:47:01;13.70;;;6.28;;
73869;SDS011;64924;42.140;24.762;2023-11-21T08:49:26;20.95;;;7.57;;
73869;SDS011;64924;42.140;24.762;2023-11-21T08:51:54;12.68;;;6.70;;
73869;SDS011;64924;42.140;24.762;2023-11-21T08:54:20;23.48;;;6.85;;
73869;SDS011;64924;42.140;24.762;2023-11-21T08:56:46;12.63;;;7.55;;
73869;SDS011;64924;42.140;24.762;2023-11-21T08:59:11;17.38;;;7.63;;
73869;SDS011;64924;42.140;24.762;2023-11-21T09:01:39;14.32;;;7.40;;
73869;SDS011;64924;42.140;24.762;2023-11-21T09:04:05;13.80;;;6.90;;
73869;SDS011;64924;42.140;24.762;2023-11-21T09:06:30;16.58;;;6.85;;
73869;SDS011;64924;42.140;24.762;2023-11-21T09:08:56;18.25;;;8.23;;
73869;SDS011;64924;42.140;24.762;2023-11-21T09:11:21;15.65;;;8.60;;
73869;SDS011;64924;42.140;24.762;2023-11-21T09:13:47;14.85;;;7.10;;
73869;SDS011;64924;42.140;24.762;2023-11-21T09:16:13;17.52;;;7.13;;
73869;SDS011;64924;42.140;24.762;2023-11-21T09:18:40;11.40;;;6.68;;
73869;SDS011;64924;42.140;24.762;2023-11-21T09:21:06;12.43;;;7.47;;
73869;SDS011;64924;42.140;24.762;2023-11-21T09:23:31;10.30;;;6.15;;
73869;SDS011;64924;42.140;24.762;2023-11-21T09:25:57;13.48;;;6.50;;
73869;SDS011;64924;42.140;24.762;2023-11-21T09:28:24;13.60;;;6.95;;
73869;SDS011;64924;42.140;24.762;2023-11-21T09:30:52;19.95;;;7.90;;
73869;SDS011;64924;42.140;24.762;2023-11-21T09:33:18;18.33;;;7.28;;
73869;SDS011;64924;42.140;24.762;2023-11-21T09:35:44;17.13;;;7.63;;
73869;SDS011;64924;42.140;24.762;2023-11-21T09:38:09;10.95;;;6.65;;
73869;SDS011;64924;42.140;24.762;2023-11-21T09:40:36;14.85;;;6.90;;
73869;SDS011;64924;42.140;24.762;2023-11-21T09:43:05;16.73;;;7.25;;
73869;SDS011;64924;42.140;24.762;2023-11-21T09:45:41;11.40;;;6.65;;
73869;SDS011;64924;42.140;24.762;2023-11-21T09:48:13;14.27;;;6.53;;
73869;SDS011;64924;42.140;24.762;2023-11-21T09:50:41;11.00;;;6.78;;
73869;SDS011;64924;42.140;24.762;2023-11-21T09:55:39;13.45;;;6.88;;
73869;SDS011;64924;42.140;24.762;2023-11-21T09:58:09;13.30;;;6.93;;
73869;SDS011;64924;42.140;24.762;2023-11-21T10:00:40;10.75;;;6.18;;
73869;SDS011;64924;42.140;24.762;2023-11-21T10:03:06;11.73;;;7.32;;
73869;SDS011;64924;42.140;24.762;2023-11-21T10:05:33;10.73;;;6.35;;
73869;SDS011;64924;42.140;24.762;2023-11-21T10:07:59;10.15;;;6.38;;
73869;SDS011;64924;42.140;24.762;2023-11-21T10:10:26;16.27;;;7.47;;
73869;SDS011;64924;42.140;24.762;2023-11-21T10:12:55;13.23;;;6.50;;
73869;SDS011;64924;42.140;24.762;2023-11-21T10:15:22;14.77;;;7.22;;
73869;SDS011;64924;42.140;24.762;2023-11-21T10:17:50;13.38;;;7.80;;
73869;SDS011;64924;42.140;24.762;2023-11-21T10:20:19;19.60;;;7.43;;
73869;SDS011;64924;42.140;24.762;2023-11-21T10:22:45;17.73;;;8.15;;
73869;SDS011;64924;42.140;24.762;2023-11-21T10:25:11;13.13;;;8.38;;
73869;SDS011;64924;42.140;24.762;2023-11-21T10:27:39;19.02;;;7.88;;
73869;SDS011;64924;42.140;24.762;2023-11-21T10:30:06;16.27;;;8.50;;
73869;SDS011;64924;42.140;24.762;2023-11-21T10:32:41;15.68;;;8.90;;
73869;SDS011;64924;42.140;24.762;2023-11-21T10:35:07;21.20;;;10.05;;
73869;SDS011;64924;42.140;24.762;2023-11-21T10:37:35;18.10;;;9.70;;
73869;SDS011;64924;42.140;24.762;2023-11-21T10:40:05;17.27;;;8.73;;
73869;SDS011;64924;42.140;24.762;2023-11-21T10:42:32;17.70;;;9.70;;
73869;SDS011;64924;42.140;24.762;2023-11-21T10:44:57;17.00;;;9.73;;
73869;SDS011;64924;42.140;24.762;2023-11-21T10:47:23;22.65;;;8.90;;
73869;SDS011;64924;42.140;24.762;2023-11-21T10:49:49;18.52;;;8.80;;
73869;SDS011;64924;42.140;24.762;2023-11-21T10:52:14;14.18;;;8.20;;
73869;SDS011;64924;42.140;24.762;2023-11-21T10:54:43;20.00;;;8.00;;
73869;SDS011;64924;42.140;24.762;2023-11-21T10:57:09;20.42;;;7.30;;
73869;SDS011;64924;42.140;24.762;2023-11-21T10:59:36;15.40;;;7.80;;
73869;SDS011;64924;42.140;24.762;2023-11-21T11:02:02;13.73;;;7.55;;
73869;SDS011;64924;42.140;24.762;2023-11-21T11:04:46;11.15;;;7.10;;
73869;SDS011;64924;42.140;24.762;2023-11-21T11:07:13;15.15;;;7.05;;
73869;SDS011;64924;42.140;24.762;2023-11-21T11:09:41;19.60;;;7.22;;
73869;SDS011;64924;42.140;24.762;2023-11-21T11:12:07;10.73;;;7.10;;
73869;SDS011;64924;42.140;24.762;2023-11-21T11:14:35;13.00;;;6.97;;
73869;SDS011;64924;42.140;24.762;2023-11-21T11:17:01;9.85;;;6.70;;
73869;SDS011;64924;42.140;24.762;2023-11-21T11:19:27;12.75;;;6.72;;
73869;SDS011;64924;42.140;24.762;2023-11-21T11:25:17;11.70;;;7.03;;
73869;SDS011;64924;42.140;24.762;2023-11-21T11:33:41;16.17;;;7.93;;
73869;SDS011;64924;42.140;24.762;2023-11-21T11:38:45;15.80;;;7.25;;
73869;SDS011;64924;42.140;24.762;2023-11-21T11:41:11;15.27;;;8.00;;
73869;SDS011;64924;42.140;24.762;2023-11-21T11:43:37;15.45;;;7.28;;
73869;SDS011;64924;42.140;24.762;2023-11-21T11:46:09;15.40;;;6.38;;
73869;SDS011;64924;42.140;24.762;2023-11-21T11:48:38;12.95;;;6.22;;
73869;SDS011;64924;42.140;24.762;2023-11-21T11:53:42;12.15;;;6.07;;
73869;SDS011;64924;42.140;24.762;2023-11-21T11:56:23;13.82;;;5.20;;
73869;SDS011;64924;42.140;24.762;2023-11-21T11:58:53;10.52;;;5.63;;
73869;SDS011;64924;42.140;24.762;2023-11-21T12:01:21;14.35;;;5.95;;
73869;SDS011;64924;42.140;24.762;2023-11-21T12:06:48;11.55;;;5.68;;
73869;SDS011;64924;42.140;24.762;2023-11-21T12:09:20;10.68;;;5.97;;
73869;SDS011;64924;42.140;24.762;2023-11-21T12:11:48;12.10;;;6.45;;
73869;SDS011;64924;42.140;24.762;2023-11-21T12:14:14;14.07;;;7.13;;
73869;SDS011;64924;42.140;24.762;2023-11-21T12:16:40;12.13;;;6.65;;
73869;SDS011;64924;42.140;24.762;2023-11-21T12:19:08;13.65;;;6.82;;
73869;SDS011;64924;42.140;24.762;2023-11-21T12:21:33;15.25;;;7.10;;
73869;SDS011;64924;42.140;24.762;2023-11-21T12:24:01;12.60;;;7.43;;
73869;SDS011;64924;42.140;24.762;2023-11-21T12:26:26;17.98;;;8.60;;
73869;SDS011;64924;42.140;24.762;2023-11-21T12:28:52;12.60;;;8.00;;
73869;SDS011;64924;42.140;24.762;2023-11-21T12:31:21;14.32;;;9.45;;
73869;SDS011;64924;42.140;24.762;2023-11-21T12:33:49;15.90;;;9.30;;
73869;SDS011;64924;42.140;24.762;2023-11-21T12:36:16;13.63;;;8.15;;
73869;SDS011;64924;42.140;24.762;2023-11-21T12:38:42;12.32;;;7.57;;
73869;SDS011;64924;42.140;24.762;2023-11-21T12:41:10;13.13;;;7.40;;
73869;SDS011;64924;42.140;24.762;2023-11-21T12:43:35;10.73;;;6.55;;
73869;SDS011;64924;42.140;24.762;2023-11-21T12:46:06;9.95;;;5.90;;
73869;SDS011;64924;42.140;24.762;2023-11-21T12:48:36;11.00;;;5.68;;
73869;SDS011;64924;42.140;24.762;2023-11-21T12:51:09;7.97;;;5.15;;
73869;SDS011;64924;42.140;24.762;2023-11-21T12:53:42;8.60;;;4.43;;
73869;SDS011;64924;42.140;24.762;2023-11-21T12:56:10;7.72;;;4.45;;
73869;SDS011;64924;42.140;24.762;2023-11-21T12:58:36;7.53;;;4.63;;
73869;SDS011;64924;42.140;24.762;2023-11-21T13:01:04;10.27;;;4.53;;
73869;SDS011;64924;42.140;24.762;2023-11-21T13:03:42;7.53;;;4.53;;
73869;SDS011;64924;42.140;24.762;2023-11-21T13:06:10;8.50;;;4.72;;
73869;SDS011;64924;42.140;24.762;2023-11-21T13:08:37;9.13;;;5.10;;
73869;SDS011;64924;42.140;24.762;2023-11-21T13:11:04;8.27;;;4.80;;
73869;SDS011;64924;42.140;24.762;2023-11-21T13:13:31;8.95;;;4.70;;
73869;SDS011;64924;42.140;24.762;2023-11-21T13:15:58;9.45;;;5.03;;
73869;SDS011;64924;42.140;24.762;2023-11-21T13:18:27;10.88;;;4.53;;
73869;SDS011;64924;42.140;24.762;2023-11-21T13:20:54;6.75;;;4.13;;
73869;SDS011;64924;42.140;24.762;2023-11-21T13:23:20;9.70;;;5.07;;
73869;SDS011;64924;42.140;24.762;2023-11-21T13:25:46;9.43;;;4.63;;
73869;SDS011;64924;42.140;24.762;2023-11-21T13:28:13;9.45;;;4.60;;
73869;SDS011;64924;42.140;24.762;2023-11-21T13:30:40;9.73;;;5.35;;
73869;SDS011;64924;42.140;24.762;2023-11-21T13:33:07;10.45;;;4.60;;
73869;SDS011;64924;42.140;24.762;2023-11-21T13:35:34;8.80;;;4.90;;
73869;SDS011;64924;42.140;24.762;2023-11-21T13:38:10;8.73;;;5.25;;
73869;SDS011;64924;42.140;24.762;2023-11-21T13:40:40;18.20;;;6.38;;
73869;SDS011;64924;42.140;24.762;2023-11-21T13:43:15;17.23;;;6.05;;
73869;SDS011;64924;42.140;24.762;2023-11-21T13:45:43;13.15;;;5.97;;
73869;SDS011;64924;42.140;24.762;2023-11-21T13:48:10;14.02;;;7.07;;
73869;SDS011;64924;42.140;24.762;2023-11-21T13:50:42;13.68;;;7.50;;
73869;SDS011;64924;42.140;24.762;2023-11-21T13:53:23;18.40;;;9.40;;
73869;SDS011;64924;42.140;24.762;2023-11-21T13:55:52;14.95;;;8.07;;
73869;SDS011;64924;42.140;24.762;2023-11-21T13:58:25;16.90;;;7.93;;
73869;SDS011;64924;42.140;24.762;2023-11-21T14:01:04;11.77;;;7.05;;
73869;SDS011;64924;42.140;24.762;2023-11-21T14:03:31;12.02;;;6.65;;
73869;SDS011;64924;42.140;24.762;2023-11-21T14:06:09;10.15;;;6.15;;
73869;SDS011;64924;42.140;24.762;2023-11-21T14:08:40;15.40;;;6.93;;
73869;SDS011;64924;42.140;24.762;2023-11-21T14:11:06;18.42;;;6.90;;
73869;SDS011;64924;42.140;24.762;2023-11-21T14:13:32;11.88;;;7.30;;
73869;SDS011;64924;42.140;24.762;2023-11-21T14:15:58;10.25;;;6.35;;
73869;SDS011;64924;42.140;24.762;2023-11-21T14:18:27;15.68;;;8.43;;
73869;SDS011;64924;42.140;24.762;2023-11-21T14:21:01;12.40;;;7.93;;
73869;SDS011;64924;42.140;24.762;2023-11-21T14:23:26;17.02;;;8.80;;
73869;SDS011;64924;42.140;24.762;2023-11-21T14:25:53;12.68;;;9.75;;
73869;SDS011;64924;42.140;24.762;2023-11-21T14:28:19;17.60;;;10.75;;
73869;SDS011;64924;42.140;24.762;2023-11-21T14:30:47;13.63;;;8.45;;
73869;SDS011;64924;42.140;24.762;2023-11-21T14:33:13;17.13;;;8.57;;
73869;SDS011;64924;42.140;24.762;2023-11-21T14:35:38;14.55;;;7.90;;
73869;SDS011;64924;42.140;24.762;2023-11-21T14:38:04;17.50;;;8.40;;
73869;SDS011;64924;42.140;24.762;2023-11-21T14:40:32;17.08;;;8.02;;
73869;SDS011;64924;42.140;24.762;2023-11-21T14:43:00;18.15;;;9.00;;
73869;SDS011;64924;42.140;24.762;2023-11-21T14:45:30;16.98;;;9.30;;